Airfield :
LOGIN :

Register | Disclaimer

   EN    FR    IT 

 










Legend :    VFR   Marginal VFR   IFR   Intensive IFR   Very Intensive IFR
Visi :
Ceiling :
>= 8 km
>= 3000ft
5 to 8 km
1000 to 3000 ft
1500m to 5 km
500 to 1000 ft
800 to 1500m
200 to 500 ft
< 800m
< 200 ft
Symbols :   Thunderstorms  Fog  Heavy snow  Heavy precipitations  Wind > 20 kt
SIGMETs :     Misc.  Thunderstorms  Icing  Turbulence  Mountain Waves  Volcanic Ashes







- Airport Elevation : 1260 ft
- IATA code : LDE
- Download approach charts


LFBT - Tarbes / Ossun

CURRENT METAR :
  • 271300Z AUTO 09006KT 040V170 CAVOK 29/17 Q1016 TEMPO SCT065CB

EXPIRED METARs :
  • 271230Z AUTO 05004KT 350V100 CAVOK 29/16 Q1016 TEMPO SCT065CB
  • 271200Z AUTO VRB03KT CAVOK 28/16 Q1016 TEMPO SCT065CB
  • 271130Z AUTO 08004KT 330V140 CAVOK 27/16 Q1016 TEMPO SCT065CB
  • 271100Z AUTO VRB05KT CAVOK 26/16 Q1016 NOSIG
  • 271030Z AUTO 12004KT 050V220 CAVOK 25/15 Q1016 NOSIG

TAF TAF LFBT
Valid from the 27 at 12:00 until the 28 at 12:00 UTC


271100Z 2712/2812 06012KT CAVOK
PROB40
TEMPO 2713/2719 SCT065CB
BECMG 2719/2721 VRB02KT
No reported NOTAMs for that airfield.



MET'MAP, your aeronautical weather chart ! - Copyright ORBIFLY December 2007 - Disclaimer

ORBIFLY MET'MAP TEAM :

Programming & Development : Alexandra Zaïnal
Concept & Development : Baudouin d'Aumeries
Co-Development & Prog : Marc-Olivier Méhu
Technical & hardware support : Manuel Goepfert

Contact : metmap@orbifly.com




SOURCES & CREDITS :

   NOAA